createdAt,value
2018-08-23T00:02:14.266Z,44.08
2018-08-23T00:04:47.437Z,44.55
2018-08-23T00:07:20.451Z,42.78
2018-08-23T00:09:55.142Z,46.08
2018-08-23T00:12:44.789Z,43.58
2018-08-23T00:15:23.294Z,42.58
2018-08-23T00:17:58.005Z,44.22
2018-08-23T00:20:29.609Z,45.22
2018-08-23T00:22:59.929Z,46.30
2018-08-23T00:25:32.199Z,44.50
2018-08-23T00:28:06.903Z,34.22
2018-08-23T00:30:37.430Z,30.12
2018-08-23T00:33:08.927Z,27.40
2018-08-23T00:35:41.099Z,31.15
2018-08-23T00:38:12.639Z,30.35
2018-08-23T00:40:47.858Z,41.50
2018-08-23T00:43:20.795Z,41.63
2018-08-23T00:45:51.008Z,23.73
2018-08-23T00:48:24.291Z,35.53
2018-08-23T00:51:01.769Z,51.73
2018-08-23T00:53:36.141Z,47.33
2018-08-23T00:56:26.586Z,43.67
2018-08-23T00:59:03.153Z,45.67
2018-08-23T01:01:35.572Z,47.10
2018-08-23T01:04:08.858Z,46.45
2018-08-23T01:06:46.667Z,47.03
2018-08-23T01:09:18.058Z,48.30
2018-08-23T01:11:51.184Z,51.83
2018-08-23T01:14:25.268Z,49.75
2018-08-23T01:17:21.444Z,51.88
2018-08-23T01:20:04.163Z,52.67
2018-08-23T01:22:37.584Z,53.03
2018-08-23T01:25:12.116Z,52.88
2018-08-23T01:27:43.672Z,55.47
2018-08-23T01:30:18.182Z,55.72
2018-08-23T01:32:49.866Z,53.83
2018-08-23T01:35:22.365Z,53.13
2018-08-23T01:37:56.991Z,54.40
2018-08-23T01:40:28.706Z,53.72
2018-08-23T01:42:59.201Z,51.92
2018-08-23T01:45:33.052Z,51.78
2018-08-23T01:48:09.385Z,53.63
2018-08-23T01:50:42.426Z,53.75
2018-08-23T01:53:17.079Z,54.28
2018-08-23T01:55:50.080Z,52.67
2018-08-23T01:58:25.004Z,54.00
2018-08-23T02:01:22.082Z,56.47
2018-08-23T02:03:53.678Z,45.50
2018-08-23T02:06:38.692Z,52.13
2018-08-23T02:09:14.736Z,56.20
2018-08-23T02:11:46.240Z,56.30
2018-08-23T02:14:19.377Z,60.17
2018-08-23T02:16:59.192Z,58.20
2018-08-23T02:19:33.746Z,60.28
2018-08-23T02:22:05.293Z,55.45
2018-08-23T02:24:38.519Z,61.03
2018-08-23T02:27:10.323Z,52.33
2018-08-23T02:29:45.297Z,54.97
2018-08-23T02:32:18.338Z,48.70
2018-08-23T02:34:51.165Z,52.38
2018-08-23T02:37:22.802Z,55.60
2018-08-23T02:39:55.780Z,55.95
2018-08-23T02:42:28.685Z,54.90
2018-08-23T02:45:17.760Z,54.35
2018-08-23T02:47:51.297Z,56.70
2018-08-23T02:50:24.236Z,54.95
2018-08-23T02:53:15.024Z,56.05
2018-08-23T02:55:52.443Z,53.80
2018-08-23T02:58:27.730Z,57.80
2018-08-23T03:01:00.787Z,60.28
2018-08-23T03:03:33.743Z,52.72
2018-08-23T03:06:05.204Z,60.03
2018-08-23T03:08:47.787Z,59.70
2018-08-23T03:11:20.884Z,51.30
2018-08-23T03:13:52.383Z,56.30
2018-08-23T03:16:25.307Z,52.92
2018-08-23T03:18:56.842Z,54.28
2018-08-23T03:21:29.834Z,53.53
2018-08-23T03:24:01.440Z,55.88
2018-08-23T03:26:34.810Z,54.70
2018-08-23T03:29:06.373Z,55.40
2018-08-23T03:31:40.507Z,53.08
2018-08-23T03:34:13.641Z,53.35
2018-08-23T03:36:48.280Z,54.65
2018-08-23T03:39:19.804Z,53.42
2018-08-23T03:41:49.756Z,54.42
2018-08-23T03:44:50.827Z,52.35
2018-08-23T03:47:24.625Z,52.22
2018-08-23T03:49:57.967Z,51.47
2018-08-23T03:52:49.301Z,50.72
2018-08-23T03:55:26.343Z,50.28
2018-08-23T03:58:04.403Z,53.13
2018-08-23T04:00:53.061Z,52.05
2018-08-23T04:03:26.398Z,50.33
2018-08-23T04:06:24.902Z,52.28
2018-08-23T04:08:56.393Z,48.95
2018-08-23T04:11:27.917Z,47.90
2018-08-23T04:13:59.622Z,49.85
2018-08-23T04:16:34.747Z,47.38
2018-08-23T04:19:07.830Z,45.50
2018-08-23T04:21:39.366Z,46.20
2018-08-23T04:24:12.428Z,47.90
2018-08-23T04:26:45.868Z,44.80
2018-08-23T04:29:50.420Z,43.33
2018-08-23T04:32:45.438Z,41.88
2018-08-23T04:35:31.418Z,41.58
2018-08-23T04:38:03.263Z,40.97
2018-08-23T04:40:34.947Z,41.13
2018-08-23T04:43:05.061Z,41.28
2018-08-23T04:45:38.416Z,39.90
2018-08-23T04:48:11.064Z,43.75
2018-08-23T04:50:44.919Z,42.40
2018-08-23T04:53:16.563Z,43.15
2018-08-23T04:55:49.678Z,53.92
2018-08-23T04:58:19.737Z,43.85
2018-08-23T05:00:51.328Z,43.08
2018-08-23T05:03:24.484Z,42.33
2018-08-23T05:05:57.306Z,41.08
2018-08-23T05:08:29.057Z,43.28
2018-08-23T05:11:03.560Z,43.90
2018-08-23T05:13:38.014Z,44.22
2018-08-23T05:16:10.075Z,42.25
2018-08-23T05:18:41.583Z,45.53
2018-08-23T05:21:14.081Z,45.08
2018-08-23T05:23:44.029Z,45.00
2018-08-23T05:26:21.135Z,44.38
2018-08-23T05:29:07.772Z,45.30
2018-08-23T05:31:42.428Z,46.90
2018-08-23T05:34:13.969Z,43.92
2018-08-23T05:36:45.431Z,44.03
2018-08-23T05:39:18.379Z,45.80
2018-08-23T05:41:52.543Z,44.50
2018-08-23T05:44:27.138Z,44.90
2018-08-23T05:46:59.267Z,44.60
2018-08-23T05:49:32.208Z,43.47
2018-08-23T05:52:02.870Z,41.55
2018-08-23T05:54:34.361Z,43.35
2018-08-23T05:57:08.900Z,42.33
2018-08-23T05:59:40.268Z,45.97
2018-08-23T06:02:14.650Z,43.75
2018-08-23T06:04:47.312Z,43.33
2018-08-23T06:07:18.818Z,43.28
2018-08-23T06:09:51.281Z,43.45
2018-08-23T06:12:22.898Z,43.90
2018-08-23T06:14:54.567Z,43.85
2018-08-23T06:17:28.927Z,42.67
2018-08-23T06:20:02.233Z,44.53
2018-08-23T06:22:36.682Z,45.17
2018-08-23T06:25:09.666Z,44.08
2018-08-23T06:27:39.783Z,44.40
2018-08-23T06:30:11.924Z,42.95
2018-08-23T06:32:46.596Z,44.33
2018-08-23T06:35:16.660Z,45.90
2018-08-23T06:38:06.632Z,44.03
2018-08-23T06:40:39.612Z,43.08
2018-08-23T06:43:11.275Z,39.95
2018-08-23T06:45:44.335Z,42.97
2018-08-23T06:48:17.428Z,41.25
2018-08-23T06:51:01.697Z,42.83
2018-08-23T06:53:55.477Z,40.92
2018-08-23T06:56:26.970Z,40.12
2018-08-23T06:59:00.613Z,37.28
2018-08-23T07:01:50.181Z,36.67
2018-08-23T07:04:20.121Z,37.45
2018-08-23T07:06:53.146Z,38.40
2018-08-23T07:09:24.597Z,35.92
2018-08-23T07:12:21.907Z,37.53
2018-08-23T07:14:54.889Z,35.90
2018-08-23T07:17:28.677Z,32.75
2018-08-23T07:20:03.557Z,34.72
2018-08-23T07:22:37.171Z,34.83
2018-08-23T07:25:19.492Z,33.72
2018-08-23T07:27:51.131Z,32.38
2018-08-23T07:30:22.756Z,30.88
2018-08-23T07:32:55.756Z,29.55
2018-08-23T07:35:28.769Z,30.98
2018-08-23T07:38:03.180Z,29.60
2018-08-23T07:40:36.152Z,29.02
2018-08-23T07:43:06.157Z,30.25
2018-08-23T07:45:39.542Z,28.10
2018-08-23T07:48:13.973Z,28.98
2018-08-23T07:50:48.335Z,28.50
2018-08-23T07:53:22.106Z,27.35
2018-08-23T07:55:53.396Z,29.23
2018-08-23T07:58:25.812Z,28.62
2018-08-23T08:00:58.433Z,28.40
2018-08-23T08:03:28.405Z,26.37
2018-08-23T08:05:59.825Z,27.92
2018-08-23T08:08:32.919Z,28.67
2018-08-23T08:11:04.396Z,28.77
2018-08-23T08:13:35.842Z,25.42
2018-08-23T08:16:21.196Z,25.33
2018-08-23T08:18:54.681Z,25.60
2018-08-23T08:21:27.553Z,24.60
2018-08-23T08:24:04.202Z,25.83
2018-08-23T08:26:34.701Z,27.50
2018-08-23T08:29:06.356Z,25.30
2018-08-23T08:31:37.805Z,23.42
2018-08-23T08:34:08.709Z,25.35
2018-08-23T08:36:40.148Z,24.12
2018-08-23T08:39:12.741Z,25.40
2018-08-23T08:41:45.736Z,25.65
2018-08-23T08:44:18.701Z,24.60
2018-08-23T08:46:51.763Z,25.58
2018-08-23T08:49:26.336Z,25.60
2018-08-23T08:51:57.771Z,26.37
2018-08-23T08:54:30.761Z,27.90
2018-08-23T08:57:02.329Z,25.52
2018-08-23T08:59:36.264Z,27.17
2018-08-23T09:02:09.563Z,24.52
2018-08-23T09:04:42.427Z,23.92
2018-08-23T09:07:16.982Z,24.45
2018-08-23T09:09:48.564Z,23.65
2018-08-23T09:12:19.956Z,24.35
2018-08-23T09:14:52.852Z,24.48
2018-08-23T09:17:47.950Z,23.15
2018-08-23T09:20:22.544Z,22.05
2018-08-23T09:22:55.125Z,23.40
2018-08-23T09:25:46.262Z,22.60
2018-08-23T09:28:19.307Z,25.35
2018-08-23T09:30:50.817Z,26.62
2018-08-23T09:33:31.787Z,26.25
2018-08-23T09:36:06.249Z,21.58
2018-08-23T09:38:37.771Z,22.92
2018-08-23T09:41:09.164Z,24.23
2018-08-23T09:43:40.693Z,24.67
2018-08-23T09:46:13.675Z,26.02
2018-08-23T09:48:45.566Z,24.10
2018-08-23T09:51:33.676Z,24.75
2018-08-23T09:54:06.781Z,25.98
2018-08-23T09:56:38.313Z,24.87
2018-08-23T09:59:11.219Z,25.75
2018-08-23T10:01:58.261Z,26.37
2018-08-23T10:04:49.399Z,25.42
2018-08-23T10:07:38.470Z,25.08
2018-08-23T10:10:25.986Z,28.38
2018-08-23T10:13:13.028Z,25.37
2018-08-23T10:16:01.793Z,24.17
2018-08-23T10:18:52.811Z,25.48
2018-08-23T10:21:43.368Z,25.17
2018-08-23T10:24:27.750Z,24.83
2018-08-23T10:27:00.901Z,24.50
2018-08-23T10:29:34.304Z,28.80
2018-08-23T10:32:07.582Z,27.02
2018-08-23T10:34:40.419Z,25.98
2018-08-23T10:37:11.886Z,26.10
2018-08-23T10:39:45.067Z,28.42
2018-08-23T10:42:18.126Z,28.27
2018-08-23T10:44:49.731Z,27.58
2018-08-23T10:47:40.248Z,27.45
2018-08-23T10:50:13.363Z,27.87
2018-08-23T10:52:43.559Z,27.73
2018-08-23T10:55:16.528Z,27.80
2018-08-23T10:57:47.961Z,33.60
2018-08-23T11:00:21.969Z,28.83
2018-08-23T11:02:54.872Z,28.35
2018-08-23T11:05:27.713Z,26.10
2018-08-23T11:08:17.198Z,28.50
2018-08-23T11:11:06.554Z,27.15
2018-08-23T11:13:51.511Z,29.35
2018-08-23T11:16:41.676Z,28.12
2018-08-23T11:19:33.640Z,25.95
2018-08-23T11:22:06.769Z,25.42
2018-08-23T11:24:39.780Z,25.90
2018-08-23T11:27:13.237Z,23.48
2018-08-23T11:29:43.496Z,25.98
2018-08-23T11:32:15.297Z,26.12
2018-08-23T11:34:46.664Z,25.45
2018-08-23T11:37:18.019Z,23.95
2018-08-23T11:39:51.164Z,24.35
2018-08-23T11:42:24.729Z,21.87
2018-08-23T11:44:59.238Z,21.85
2018-08-23T11:47:30.726Z,22.27
2018-08-23T11:50:02.180Z,19.60
2018-08-23T11:52:33.549Z,21.27
2018-08-23T11:55:05.105Z,18.23
2018-08-23T11:57:37.994Z,14.87
2018-08-23T12:00:10.799Z,13.68
2018-08-23T12:02:45.940Z,12.07
2018-08-23T12:05:20.223Z,15.90
2018-08-23T12:07:56.502Z,16.17
2018-08-23T12:10:28.077Z,13.50
2018-08-23T12:12:59.507Z,15.55
2018-08-23T12:15:33.312Z,14.57
2018-08-23T12:18:06.401Z,10.65
2018-08-23T12:20:39.389Z,7.10
2018-08-23T12:23:12.400Z,10.32
2018-08-23T12:25:43.134Z,10.30
2018-08-23T12:28:34.383Z,8.82
2018-08-23T12:31:04.867Z,8.90
2018-08-23T12:33:39.305Z,12.57
2018-08-23T12:36:13.140Z,12.18
2018-08-23T12:39:02.448Z,16.87
2018-08-23T12:41:51.489Z,14.90
2018-08-23T12:44:24.760Z,10.13
2018-08-23T12:47:13.649Z,10.95
2018-08-23T12:49:50.843Z,17.55
2018-08-23T12:52:22.368Z,15.35
2018-08-23T12:54:55.252Z,15.05
2018-08-23T12:57:28.536Z,14.95
2018-08-23T12:59:59.947Z,13.48
2018-08-23T13:02:30.615Z,14.40
2018-08-23T13:05:00.973Z,14.65
2018-08-23T13:07:32.936Z,18.25
2018-08-23T13:10:04.630Z,16.33
2018-08-23T13:12:36.174Z,17.87
2018-08-23T13:15:09.340Z,19.73
2018-08-23T13:17:42.192Z,20.92
2018-08-23T13:20:15.318Z,21.60
2018-08-23T13:22:48.196Z,16.45
2018-08-23T13:25:21.664Z,16.37
2018-08-23T13:27:54.636Z,15.50
2018-08-23T13:30:29.302Z,18.33
2018-08-23T13:33:00.734Z,18.20
2018-08-23T13:35:33.964Z,19.75
2018-08-23T13:38:04.484Z,17.48
2018-08-23T13:40:36.809Z,18.08
2018-08-23T13:43:07.289Z,18.00
2018-08-23T13:45:38.325Z,21.08
2018-08-23T13:48:13.280Z,18.73
2018-08-23T13:50:46.401Z,18.45
2018-08-23T13:53:17.895Z,17.95
2018-08-23T13:55:49.461Z,18.20
2018-08-23T13:58:23.941Z,18.05
2018-08-23T14:00:53.588Z,16.73
2018-08-23T14:03:27.508Z,16.52
2018-08-23T14:06:00.775Z,15.85
2018-08-23T14:08:32.134Z,14.85
2018-08-23T14:11:03.475Z,16.87
2018-08-23T14:13:36.498Z,15.80
2018-08-23T14:16:09.671Z,16.85
2018-08-23T14:18:41.642Z,14.60
2018-08-23T14:21:13.881Z,13.93
2018-08-23T14:23:47.081Z,14.98
2018-08-23T14:26:17.052Z,14.95
2018-08-23T14:28:51.561Z,14.75
2018-08-23T14:31:22.945Z,12.60
2018-08-23T14:33:55.888Z,12.63
2018-08-23T14:36:30.371Z,13.10
2018-08-23T14:39:03.550Z,11.20
2018-08-23T14:41:33.462Z,11.85
2018-08-23T14:44:03.966Z,10.95
2018-08-23T14:46:54.193Z,14.15
2018-08-23T14:49:38.029Z,12.93
2018-08-23T14:52:09.809Z,10.90
2018-08-23T14:54:46.106Z,8.65
2018-08-23T14:57:37.090Z,10.88
2018-08-23T15:00:10.050Z,10.93
2018-08-23T15:02:42.107Z,11.35
2018-08-23T15:05:15.122Z,11.32
2018-08-23T15:07:47.949Z,12.35
2018-08-23T15:10:20.620Z,12.98
2018-08-23T15:12:53.602Z,13.13
2018-08-23T15:15:41.472Z,13.15
2018-08-23T15:18:15.922Z,13.30
2018-08-23T15:20:47.824Z,11.95
2018-08-23T15:23:20.750Z,11.00
2018-08-23T15:25:50.740Z,9.50
2018-08-23T15:28:21.705Z,8.48
2018-08-23T15:30:56.239Z,7.95
2018-08-23T15:33:30.556Z,7.95
2018-08-23T15:36:02.043Z,8.32
2018-08-23T15:38:36.869Z,7.43
2018-08-23T15:41:10.298Z,7.32
2018-08-23T15:43:41.819Z,5.72
2018-08-23T15:46:13.533Z,6.68
2018-08-23T15:48:45.002Z,7.32
2018-08-23T15:51:16.638Z,5.90
2018-08-23T15:53:48.075Z,6.62
2018-08-23T15:56:18.093Z,6.00
2018-08-23T15:58:53.430Z,6.62
2018-08-23T16:01:28.636Z,6.53
2018-08-23T16:04:01.805Z,5.28
2018-08-23T16:06:34.876Z,5.45
2018-08-23T16:09:12.701Z,5.95
2018-08-23T16:11:42.698Z,5.35
2018-08-23T16:14:14.090Z,5.22
2018-08-23T16:17:02.978Z,5.32
2018-08-23T16:19:51.303Z,4.78
2018-08-23T16:22:24.905Z,4.15
2018-08-23T16:24:56.484Z,4.32
2018-08-23T16:27:27.836Z,3.33
2018-08-23T16:29:59.381Z,3.30
2018-08-23T16:32:40.499Z,3.17
2018-08-23T16:35:11.093Z,3.05
2018-08-23T16:37:42.515Z,3.78
2018-08-23T16:40:33.892Z,3.83
2018-08-23T16:43:05.621Z,4.40
2018-08-23T16:45:37.284Z,4.07
2018-08-23T16:48:07.382Z,4.40
2018-08-23T16:50:37.311Z,3.83
2018-08-23T16:53:10.248Z,3.50
2018-08-23T16:55:41.381Z,3.97
2018-08-23T16:58:11.434Z,4.72
2018-08-23T17:00:44.551Z,5.40
2018-08-23T17:03:17.510Z,5.03
2018-08-23T17:05:50.042Z,4.65
2018-08-23T17:08:21.763Z,4.45
2018-08-23T17:10:53.427Z,4.53
2018-08-23T17:13:41.651Z,3.90
2018-08-23T17:16:32.169Z,4.05
2018-08-23T17:19:05.128Z,4.00
2018-08-23T17:21:36.878Z,3.40
2018-08-23T17:24:09.975Z,3.75
2018-08-23T17:26:43.136Z,5.80
2018-08-23T17:29:16.088Z,5.28
2018-08-23T17:31:47.622Z,6.40
2018-08-23T17:34:19.312Z,6.30
2018-08-23T17:36:50.792Z,6.80
2018-08-23T17:39:23.759Z,6.40
2018-08-23T17:41:55.232Z,5.37
2018-08-23T17:44:26.674Z,5.00
2018-08-23T17:47:01.420Z,3.83
2018-08-23T17:49:31.971Z,5.10
2018-08-23T17:52:04.075Z,4.60
2018-08-23T17:54:34.076Z,4.07
2018-08-23T17:57:05.471Z,4.20
2018-08-23T17:59:38.733Z,4.32
2018-08-23T18:02:11.660Z,4.50
2018-08-23T18:04:44.761Z,5.15
2018-08-23T18:07:13.907Z,4.72
2018-08-23T18:09:48.360Z,3.92
2018-08-23T18:12:21.350Z,3.70
2018-08-23T18:14:56.240Z,3.97
2018-08-23T18:17:27.831Z,3.87
2018-08-23T18:20:00.650Z,4.75
2018-08-23T18:22:35.130Z,5.03
2018-08-23T18:25:08.512Z,5.15
2018-08-23T18:27:39.986Z,5.35
2018-08-23T18:30:11.707Z,4.80
2018-08-23T18:32:42.354Z,4.40
2018-08-23T18:35:15.298Z,4.15
2018-08-23T18:37:47.469Z,4.43
2018-08-23T18:40:19.045Z,4.28
2018-08-23T18:42:53.330Z,4.97
2018-08-23T18:45:26.674Z,4.78
2018-08-23T18:48:01.055Z,4.55
2018-08-23T18:50:34.219Z,5.18
2018-08-23T18:53:06.140Z,7.28
2018-08-23T18:55:40.567Z,8.10
2018-08-23T18:58:13.602Z,7.10
2018-08-23T19:00:46.534Z,6.32
2018-08-23T19:03:18.107Z,6.20
2018-08-23T19:05:48.101Z,4.87
2018-08-23T19:08:19.767Z,4.82
2018-08-23T19:10:51.226Z,5.18
2018-08-23T19:13:22.695Z,6.45
2018-08-23T19:16:10.145Z,5.20
2018-08-23T19:18:40.829Z,6.20
2018-08-23T19:21:13.828Z,5.65
2018-08-23T19:23:45.616Z,5.32
2018-08-23T19:26:17.236Z,4.45
2018-08-23T19:28:51.126Z,5.53
2018-08-23T19:31:24.676Z,5.20
2018-08-23T19:33:57.453Z,6.30
2018-08-23T19:36:30.561Z,6.57
2018-08-23T19:39:02.048Z,3.87
2018-08-23T19:41:35.253Z,3.83
2018-08-23T19:44:05.303Z,3.50
2018-08-23T19:46:54.578Z,4.18
2018-08-23T19:49:44.181Z,3.50
2018-08-23T19:52:17.297Z,3.37
2018-08-23T19:54:48.820Z,3.15
2018-08-23T19:57:18.930Z,3.55
2018-08-23T19:59:52.793Z,3.37
2018-08-23T20:02:26.531Z,3.50
2018-08-23T20:04:59.670Z,4.00
2018-08-23T20:07:31.197Z,3.67
2018-08-23T20:10:03.640Z,3.85
2018-08-23T20:12:35.280Z,3.53
2018-08-23T20:15:08.190Z,3.95
2018-08-23T20:17:40.875Z,3.95
2018-08-23T20:20:10.995Z,4.20
2018-08-23T20:22:43.337Z,4.60
2018-08-23T20:25:18.404Z,5.15
2018-08-23T20:27:51.341Z,6.07
2018-08-23T20:30:24.332Z,6.87
2018-08-23T20:32:57.440Z,7.90
2018-08-23T20:35:30.759Z,8.15
2018-08-23T20:38:02.221Z,7.82
2018-08-23T20:40:35.343Z,7.37
2018-08-23T20:43:09.574Z,8.02
2018-08-23T20:45:41.073Z,7.45
2018-08-23T20:48:14.048Z,6.85
2018-08-23T20:50:45.533Z,6.72
2018-08-23T20:53:17.946Z,7.22
2018-08-23T20:55:49.639Z,6.90
2018-08-23T20:58:22.819Z,7.70
2018-08-23T21:00:54.365Z,7.43
2018-08-23T21:03:28.910Z,9.50
2018-08-23T21:06:02.348Z,8.30
2018-08-23T21:08:33.803Z,8.52
2018-08-23T21:11:05.219Z,7.47
2018-08-23T21:13:40.574Z,5.80
2018-08-23T21:16:12.534Z,4.90
2018-08-23T21:18:44.208Z,4.62
2018-08-23T21:21:17.863Z,4.18
2018-08-23T21:23:52.329Z,4.32
2018-08-23T21:26:26.723Z,4.07
2018-08-23T21:28:58.282Z,4.57
2018-08-23T21:31:28.456Z,4.62
2018-08-23T21:34:00.049Z,4.78
2018-08-23T21:36:34.486Z,5.20
2018-08-23T21:39:11.181Z,5.85
2018-08-23T21:41:42.199Z,5.90
2018-08-23T21:44:15.471Z,5.50
2018-08-23T21:46:47.840Z,6.28
2018-08-23T21:49:20.907Z,5.87
2018-08-23T21:51:50.833Z,6.00
2018-08-23T21:54:22.599Z,6.60
2018-08-23T21:56:53.119Z,7.25
2018-08-23T21:59:26.043Z,7.47
2018-08-23T22:02:16.923Z,7.60
2018-08-23T22:04:57.311Z,7.65
2018-08-23T22:07:31.742Z,7.53
2018-08-23T22:10:04.762Z,8.80
2018-08-23T22:12:36.731Z,9.68
2018-08-23T22:15:09.919Z,8.93
2018-08-23T22:17:41.738Z,10.27
2018-08-23T22:20:16.781Z,9.85
2018-08-23T22:22:50.148Z,11.65
2018-08-23T22:25:23.640Z,10.60
2018-08-23T22:27:55.383Z,10.93
2018-08-23T22:30:29.073Z,11.82
2018-08-23T22:33:01.716Z,12.27
2018-08-23T22:35:35.780Z,12.45
2018-08-23T22:38:11.485Z,12.65
2018-08-23T22:40:43.192Z,12.48
2018-08-23T22:43:16.292Z,11.90
2018-08-23T22:45:48.036Z,12.13
2018-08-23T22:48:22.830Z,11.98
2018-08-23T22:50:54.140Z,11.40
2018-08-23T22:53:27.656Z,11.32
2018-08-23T22:56:01.057Z,11.02
2018-08-23T22:58:35.690Z,11.30
2018-08-23T23:01:10.571Z,10.30
2018-08-23T23:03:58.184Z,10.50
2018-08-23T23:06:30.314Z,11.12
2018-08-23T23:09:05.286Z,10.98
2018-08-23T23:11:38.079Z,11.30
2018-08-23T23:14:11.483Z,10.57
2018-08-23T23:16:45.008Z,10.40
2018-08-23T23:19:16.621Z,10.02
2018-08-23T23:21:48.065Z,9.73
2018-08-23T23:24:38.996Z,10.05
2018-08-23T23:27:11.976Z,10.23
2018-08-23T23:29:43.831Z,10.52
2018-08-23T23:32:17.406Z,10.38
2018-08-23T23:34:50.780Z,11.43
2018-08-23T23:37:22.594Z,10.75
2018-08-23T23:39:54.491Z,14.05
2018-08-23T23:42:26.012Z,11.05
2018-08-23T23:45:00.766Z,10.13
2018-08-23T23:47:33.856Z,10.80
2018-08-23T23:50:05.672Z,8.88
2018-08-23T23:52:37.104Z,8.50
2018-08-23T23:55:11.929Z,8.57
2018-08-23T23:57:44.955Z,8.25
